Time;durP1;ratioP1;P1;durP2;ratioP2;P2;SDS_P1;SDS_P2;PMS_P1;PMS_P2;Temp;Humidity;BMP_temperature;BMP_pressure;BME280_temperature;BME280_humidity;BME280_pressure;Samples;Min_cycle;Max_cycle;Signal;HPM_P1;HPM_P2
2021/10/07 00:01:51;;;;;;;4.25;1.80;;;;;;;;;;5095772;28;20119;-78
2021/10/07 00:04:17;;;;;;;4.07;1.98;;;;;;;;;;5096271;28;20036;-78
2021/10/07 00:06:42;;;;;;;3.10;1.60;;;;;;;;;;5096706;28;20036;-77
2021/10/07 00:09:08;;;;;;;3.60;1.80;;;;;;;;;;5096437;28;20610;-78
2021/10/07 00:11:35;;;;;;;5.22;2.08;;;;;;;;;;5096687;28;20359;-75
2021/10/07 00:14:02;;;;;;;3.20;1.70;;;;;;;;;;5096112;28;20126;-75
2021/10/07 00:16:27;;;;;;;4.85;1.73;;;;;;;;;;5096373;28;20398;-77
2021/10/07 00:18:53;;;;;;;4.25;1.63;;;;;;;;;;5096480;28;20043;-77
2021/10/07 00:21:19;;;;;;;3.30;1.80;;;;;;;;;;5096557;28;20036;-77
2021/10/07 00:24:03;;;;;;;5.53;1.70;;;;;;;;;;5096287;28;20040;-78
2021/10/07 00:26:29;;;;;;;4.72;1.90;;;;;;;;;;5095899;28;20047;-78
2021/10/07 00:28:59;;;;;;;3.05;1.73;;;;;;;;;;5096019;28;20044;-78
2021/10/07 00:31:27;;;;;;;4.38;1.95;;;;;;;;;;5096156;28;20469;-77
2021/10/07 00:34:20;;;;;;;4.22;1.58;;;;;;;;;;5096082;28;20480;-78
2021/10/07 00:39:31;;;;;;;6.38;1.60;;;;;;;;;;5086953;28;20067;-77
2021/10/07 00:41:57;;;;;;;2.75;1.60;;;;;;;;;;5095908;28;20050;-78
2021/10/07 00:44:23;;;;;;;3.38;1.30;;;;;;;;;;5095211;28;20048;-77
2021/10/07 00:46:59;;;;;;;3.40;1.70;;;;;;;;;;5095047;28;20036;-77
2021/10/07 00:49:25;;;;;;;8.75;4.35;;;;;;;;;;5094017;28;20062;-78
2021/10/07 00:51:51;;;;;;;9.50;5.60;;;;;;;;;;5095985;28;20553;-77
2021/10/07 00:54:21;;;;;;;6.90;4.20;;;;;;;;;;5095113;28;20040;-78
2021/10/07 00:56:48;;;;;;;9.68;3.70;;;;;;;;;;5095796;28;20036;-78
2021/10/07 00:59:13;;;;;;;10.18;3.45;;;;;;;;;;5095433;28;20028;-78
2021/10/07 01:01:39;;;;;;;5.43;2.78;;;;;;;;;;5096694;28;20359;-78
2021/10/07 01:04:05;;;;;;;3.95;2.30;;;;;;;;;;5096496;28;20170;-76
2021/10/07 01:06:31;;;;;;;3.60;2.13;;;;;;;;;;5095828;28;20035;-78
2021/10/07 01:08:58;;;;;;;7.53;2.20;;;;;;;;;;5095198;28;20043;-79
2021/10/07 01:11:23;;;;;;;3.75;2.17;;;;;;;;;;5095332;28;20043;-78
2021/10/07 01:13:48;;;;;;;9.85;2.20;;;;;;;;;;5097337;28;20032;-79
2021/10/07 01:16:16;;;;;;;3.42;1.55;;;;;;;;;;5097027;28;20115;-78
2021/10/07 01:18:42;;;;;;;3.55;2.00;;;;;;;;;;5094277;28;20039;-79
2021/10/07 01:21:13;;;;;;;4.82;1.67;;;;;;;;;;5094777;28;20030;-79
2021/10/07 01:23:43;;;;;;;7.55;2.60;;;;;;;;;;5083871;28;20066;-79
2021/10/07 01:26:10;;;;;;;3.10;1.73;;;;;;;;;;5074811;28;20115;-79
2021/10/07 01:28:40;;;;;;;4.00;1.92;;;;;;;;;;5074636;28;20477;-78
2021/10/07 01:31:06;;;;;;;5.97;1.80;;;;;;;;;;5074690;28;20032;-78
2021/10/07 01:33:33;;;;;;;5.50;2.00;;;;;;;;;;5074534;28;20039;-77
2021/10/07 01:35:59;;;;;;;4.82;2.08;;;;;;;;;;5074556;28;20169;-78
2021/10/07 01:38:24;;;;;;;2.20;1.55;;;;;;;;;;5074259;28;20078;-78
2021/10/07 01:40:49;;;;;;;2.83;1.52;;;;;;;;;;5074704;28;20036;-79
2021/10/07 01:43:15;;;;;;;3.30;1.55;;;;;;;;;;5074658;28;20029;-78
2021/10/07 01:45:41;;;;;;;3.78;1.50;;;;;;;;;;5075261;28;20029;-78
2021/10/07 01:48:06;;;;;;;2.28;1.63;;;;;;;;;;5075035;28;20036;-78
2021/10/07 01:50:32;;;;;;;6.43;2.45;;;;;;;;;;5075297;28;20032;-79
2021/10/07 01:52:58;;;;;;;5.45;2.65;;;;;;;;;;5083206;28;20038;-79
2021/10/07 01:55:23;;;;;;;7.07;2.45;;;;;;;;;;5113766;28;20042;-78
2021/10/07 01:57:49;;;;;;;5.43;2.40;;;;;;;;;;5114902;28;20045;-78
2021/10/07 02:00:16;;;;;;;4.40;2.58;;;;;;;;;;5115548;28;20031;-79
2021/10/07 02:02:41;;;;;;;8.18;2.30;;;;;;;;;;5114737;28;20031;-78
2021/10/07 02:05:08;;;;;;;5.57;2.60;;;;;;;;;;5115493;28;20404;-78
2021/10/07 02:07:34;;;;;;;5.05;2.00;;;;;;;;;;5115608;28;20530;-78
2021/10/07 02:09:59;;;;;;;5.75;2.05;;;;;;;;;;5097001;28;20028;-78
2021/10/07 02:12:25;;;;;;;4.55;1.88;;;;;;;;;;5115206;28;20092;-78
2021/10/07 02:14:50;;;;;;;9.10;1.48;;;;;;;;;;5115454;28;20500;-78
2021/10/07 02:17:15;;;;;;;3.42;1.73;;;;;;;;;;5114081;28;20381;-78
2021/10/07 02:19:41;;;;;;;2.80;1.77;;;;;;;;;;5113557;28;20024;-78
2021/10/07 02:22:06;;;;;;;4.45;2.00;;;;;;;;;;5112901;28;20061;-78
2021/10/07 02:24:31;;;;;;;6.78;2.10;;;;;;;;;;5093932;28;20109;-76
2021/10/07 02:26:57;;;;;;;4.90;2.00;;;;;;;;;;5090887;28;20040;-77
2021/10/07 02:29:22;;;;;;;5.43;2.20;;;;;;;;;;5091440;28;20040;-78
2021/10/07 02:31:48;;;;;;;4.93;2.42;;;;;;;;;;5093772;28;20127;-78
2021/10/07 02:34:13;;;;;;;3.95;2.22;;;;;;;;;;5094438;28;20039;-79
2021/10/07 02:36:38;;;;;;;4.80;2.00;;;;;;;;;;5093668;28;20047;-78
2021/10/07 02:39:04;;;;;;;4.28;2.10;;;;;;;;;;5093731;28;20052;-78
2021/10/07 02:41:31;;;;;;;8.25;1.90;;;;;;;;;;5093773;28;20118;-78
2021/10/07 02:43:57;;;;;;;4.85;2.00;;;;;;;;;;5094627;28;20028;-79
2021/10/07 02:46:23;;;;;;;2.75;1.88;;;;;;;;;;5094859;28;20044;-78
2021/10/07 02:48:48;;;;;;;3.78;2.20;;;;;;;;;;5094873;28;20040;-79
2021/10/07 02:51:14;;;;;;;5.35;1.88;;;;;;;;;;5095595;28;20097;-80
2021/10/07 02:53:39;;;;;;;5.43;1.65;;;;;;;;;;5106560;28;20061;-78
2021/10/07 02:56:05;;;;;;;4.03;1.90;;;;;;;;;;5115271;28;20035;-79
2021/10/07 02:58:33;;;;;;;4.07;1.60;;;;;;;;;;5114171;28;20020;-76
2021/10/07 03:00:58;;;;;;;3.67;1.77;;;;;;;;;;5113831;28;20036;-76
2021/10/07 03:03:24;;;;;;;2.45;1.70;;;;;;;;;;5114593;28;20032;-78
2021/10/07 03:05:49;;;;;;;6.13;2.17;;;;;;;;;;5115183;28;20023;-78
2021/10/07 03:08:14;;;;;;;1.85;1.60;;;;;;;;;;5118034;28;20031;-78
2021/10/07 03:10:40;;;;;;;5.25;1.80;;;;;;;;;;5117842;28;20028;-79
2021/10/07 03:13:05;;;;;;;5.40;2.08;;;;;;;;;;5096330;28;20439;-78
2021/10/07 03:15:31;;;;;;;5.18;2.17;;;;;;;;;;5098618;28;20024;-78
2021/10/07 03:17:56;;;;;;;4.88;2.20;;;;;;;;;;5097826;28;20039;-79
2021/10/07 03:20:22;;;;;;;4.05;2.00;;;;;;;;;;5097898;28;20043;-79
2021/10/07 03:22:47;;;;;;;4.25;2.20;;;;;;;;;;5098802;28;20032;-79
2021/10/07 03:25:13;;;;;;;4.70;2.65;;;;;;;;;;5096468;28;20028;-78
2021/10/07 03:27:38;;;;;;;3.55;2.47;;;;;;;;;;5096648;28;20071;-78
2021/10/07 03:30:05;;;;;;;6.05;2.70;;;;;;;;;;5097020;28;20043;-78
2021/10/07 03:32:30;;;;;;;5.28;3.47;;;;;;;;;;5095893;28;20063;-79
2021/10/07 03:34:56;;;;;;;7.25;3.95;;;;;;;;;;5097093;28;20068;-76
2021/10/07 03:37:22;;;;;;;6.93;4.07;;;;;;;;;;5097626;28;20036;-78
2021/10/07 03:39:47;;;;;;;5.97;3.63;;;;;;;;;;5097303;28;20117;-78
2021/10/07 03:42:13;;;;;;;8.73;3.40;;;;;;;;;;5096561;28;20031;-79
2021/10/07 03:44:38;;;;;;;4.95;3.40;;;;;;;;;;5097125;28;20028;-79
2021/10/07 03:47:04;;;;;;;8.38;3.40;;;;;;;;;;5096815;28;20088;-79
2021/10/07 03:49:29;;;;;;;6.95;3.45;;;;;;;;;;5095147;28;20093;-79
2021/10/07 03:51:55;;;;;;;6.28;3.40;;;;;;;;;;5096392;28;20378;-79
2021/10/07 03:54:20;;;;;;;7.00;3.70;;;;;;;;;;5097600;28;20039;-78
2021/10/07 03:56:45;;;;;;;5.18;3.67;;;;;;;;;;5096240;28;20044;-79
2021/10/07 03:59:11;;;;;;;6.90;3.80;;;;;;;;;;5096663;28;20450;-78
2021/10/07 04:01:37;;;;;;;7.07;3.72;;;;;;;;;;5097275;28;20446;-78
2021/10/07 04:04:03;;;;;;;8.50;4.18;;;;;;;;;;5096725;28;20085;-78
2021/10/07 04:06:28;;;;;;;5.32;3.50;;;;;;;;;;5097405;28;20032;-78
2021/10/07 04:08:54;;;;;;;5.20;3.17;;;;;;;;;;5095454;28;20046;-78
2021/10/07 04:11:20;;;;;;;8.00;3.95;;;;;;;;;;5096876;28;20058;-78
2021/10/07 04:13:47;;;;;;;7.50;3.45;;;;;;;;;;5096638;28;20065;-78
2021/10/07 04:16:13;;;;;;;5.93;3.15;;;;;;;;;;5096352;28;20048;-79
2021/10/07 04:18:40;;;;;;;4.35;3.50;;;;;;;;;;5074982;28;20032;-79
2021/10/07 04:21:06;;;;;;;13.57;4.57;;;;;;;;;;5076425;28;20398;-78
2021/10/07 04:23:35;;;;;;;7.68;4.45;;;;;;;;;;5075119;28;20533;-78
2021/10/07 04:26:00;;;;;;;6.50;3.75;;;;;;;;;;5076429;28;20040;-78
2021/10/07 04:28:25;;;;;;;5.55;3.75;;;;;;;;;;5076375;28;20035;-79
2021/10/07 04:30:51;;;;;;;5.97;3.83;;;;;;;;;;5075883;28;20098;-80
2021/10/07 04:33:16;;;;;;;4.25;3.40;;;;;;;;;;5074475;28;20131;-80
2021/10/07 04:35:42;;;;;;;4.97;3.45;;;;;;;;;;5075867;28;20040;-78
2021/10/07 04:38:08;;;;;;;4.88;3.22;;;;;;;;;;5075170;28;20420;-79
2021/10/07 04:40:33;;;;;;;6.30;4.00;;;;;;;;;;5074217;28;20041;-79
2021/10/07 04:42:59;;;;;;;7.35;3.50;;;;;;;;;;5075441;28;20048;-79
2021/10/07 04:45:25;;;;;;;6.05;3.15;;;;;;;;;;5075638;28;20064;-80
2021/10/07 04:47:50;;;;;;;8.68;4.00;;;;;;;;;;5088801;28;20068;-78
2021/10/07 04:50:16;;;;;;;5.93;3.67;;;;;;;;;;5094539;28;20038;-78
2021/10/07 04:52:41;;;;;;;13.50;4.68;;;;;;;;;;5095562;28;20039;-80
2021/10/07 04:55:07;;;;;;;12.40;5.45;;;;;;;;;;5096469;28;20093;-80
2021/10/07 04:57:34;;;;;;;9.35;5.28;;;;;;;;;;5092738;28;20039;-79
2021/10/07 04:59:59;;;;;;;10.02;4.45;;;;;;;;;;5095687;28;20434;-78
2021/10/07 05:02:25;;;;;;;7.47;4.07;;;;;;;;;;5094188;28;20123;-78
2021/10/07 05:04:50;;;;;;;6.57;4.13;;;;;;;;;;5095508;28;20038;-78
2021/10/07 05:07:16;;;;;;;8.75;3.72;;;;;;;;;;5095443;28;20035;-78
2021/10/07 05:09:41;;;;;;;6.90;4.38;;;;;;;;;;5094182;28;20108;-77
2021/10/07 05:12:07;;;;;;;6.43;4.00;;;;;;;;;;5094887;28;20043;-78
2021/10/07 05:14:33;;;;;;;6.30;4.43;;;;;;;;;;5095751;28;20024;-78
2021/10/07 05:17:01;;;;;;;8.35;3.97;;;;;;;;;;5094044;28;20515;-78
2021/10/07 05:19:28;;;;;;;6.53;4.47;;;;;;;;;;5095611;28;20493;-78
2021/10/07 05:21:53;;;;;;;11.00;4.25;;;;;;;;;;5094381;28;20062;-78
2021/10/07 05:24:19;;;;;;;6.00;3.90;;;;;;;;;;5095150;28;20036;-78
2021/10/07 05:26:44;;;;;;;7.28;3.80;;;;;;;;;;5094627;28;20032;-79
2021/10/07 05:29:09;;;;;;;6.93;4.07;;;;;;;;;;5094695;28;20123;-79
2021/10/07 05:31:35;;;;;;;11.05;4.22;;;;;;;;;;5094515;28;20126;-79
2021/10/07 05:34:00;;;;;;;6.25;3.88;;;;;;;;;;5094612;28;20126;-78
2021/10/07 05:36:26;;;;;;;5.07;3.58;;;;;;;;;;5094775;28;20032;-77
2021/10/07 05:38:51;;;;;;;6.63;3.95;;;;;;;;;;5095225;28;20058;-78
2021/10/07 05:41:17;;;;;;;9.73;4.40;;;;;;;;;;5095317;28;20043;-78
2021/10/07 05:43:42;;;;;;;9.10;5.28;;;;;;;;;;5095820;28;20042;-79
2021/10/07 05:46:07;;;;;;;9.95;4.75;;;;;;;;;;5095088;28;20040;-79
2021/10/07 05:48:34;;;;;;;7.15;4.30;;;;;;;;;;5093490;28;20067;-79
2021/10/07 05:51:00;;;;;;;9.40;4.88;;;;;;;;;;5092905;28;20036;-77
2021/10/07 05:53:25;;;;;;;7.90;4.40;;;;;;;;;;5102560;28;20034;-78
2021/10/07 05:55:50;;;;;;;6.70;4.47;;;;;;;;;;5115278;28;20027;-78
2021/10/07 05:58:16;;;;;;;7.70;4.30;;;;;;;;;;5115096;28;20043;-78
2021/10/07 06:00:41;;;;;;;6.47;4.40;;;;;;;;;;5114757;28;20027;-80
2021/10/07 06:03:09;;;;;;;7.43;4.05;;;;;;;;;;5115000;28;20032;-77
2021/10/07 06:05:34;;;;;;;7.82;3.95;;;;;;;;;;5115597;28;20043;-78
2021/10/07 06:07:59;;;;;;;10.82;4.05;;;;;;;;;;5115080;28;20040;-78
2021/10/07 06:10:25;;;;;;;5.97;4.43;;;;;;;;;;5114894;28;20028;-78
2021/10/07 06:12:50;;;;;;;11.70;5.30;;;;;;;;;;5114119;28;20032;-79
2021/10/07 06:15:16;;;;;;;7.93;5.35;;;;;;;;;;5115789;28;20028;-78
2021/10/07 06:17:42;;;;;;;6.65;5.10;;;;;;;;;;5115541;28;20039;-78
2021/10/07 06:20:24;;;;;;;9.50;5.03;;;;;;;;;;5115823;28;20043;-78
2021/10/07 06:22:50;;;;;;;5.25;4.75;;;;;;;;;;5111946;28;20043;-78
2021/10/07 06:25:17;;;;;;;8.18;5.22;;;;;;;;;;5095352;28;20024;-79
2021/10/07 06:27:42;;;;;;;9.88;4.70;;;;;;;;;;5093751;28;20079;-79
2021/10/07 06:30:08;;;;;;;9.05;4.50;;;;;;;;;;5092655;28;20070;-79
2021/10/07 06:32:34;;;;;;;9.00;5.05;;;;;;;;;;5092177;28;20032;-76
2021/10/07 06:34:59;;;;;;;11.90;4.82;;;;;;;;;;5093452;28;20130;-75
2021/10/07 06:37:24;;;;;;;7.63;5.47;;;;;;;;;;5092887;28;20436;-76
2021/10/07 06:39:50;;;;;;;6.20;4.85;;;;;;;;;;5092605;28;20082;-75
2021/10/07 06:42:15;;;;;;;8.95;5.13;;;;;;;;;;5094433;28;20036;-75
2021/10/07 06:44:40;;;;;;;10.10;4.90;;;;;;;;;;5096838;28;20127;-78
2021/10/07 06:47:06;;;;;;;8.43;5.13;;;;;;;;;;5098276;28;20085;-79
2021/10/07 06:49:31;;;;;;;7.05;4.85;;;;;;;;;;5097188;28;20051;-78
2021/10/07 06:51:57;;;;;;;5.88;4.32;;;;;;;;;;5095844;28;20040;-75
2021/10/07 06:54:22;;;;;;;8.15;3.78;;;;;;;;;;5096754;28;20194;-75
2021/10/07 06:56:47;;;;;;;5.93;4.50;;;;;;;;;;5096971;28;20036;-76
2021/10/07 06:59:13;;;;;;;7.00;4.72;;;;;;;;;;5096645;28;20032;-77
2021/10/07 07:01:38;;;;;;;6.30;4.53;;;;;;;;;;5096646;28;20122;-76
2021/10/07 07:04:04;;;;;;;6.75;4.30;;;;;;;;;;5094387;28;20043;-76
2021/10/07 07:06:29;;;;;;;5.75;3.90;;;;;;;;;;5096273;28;20040;-75
2021/10/07 07:08:55;;;;;;;5.93;4.30;;;;;;;;;;5096921;28;20165;-76
2021/10/07 07:11:30;;;;;;;6.47;4.53;;;;;;;;;;5096560;28;20458;-77
2021/10/07 07:13:55;;;;;;;6.63;4.53;;;;;;;;;;5096736;28;20036;-77
2021/10/07 07:16:21;;;;;;;11.98;4.65;;;;;;;;;;5099662;28;20039;-79
2021/10/07 07:18:46;;;;;;;6.65;5.00;;;;;;;;;;5100824;28;20118;-81
2021/10/07 07:21:12;;;;;;;10.07;4.70;;;;;;;;;;5100531;28;20035;-78
2021/10/07 07:23:37;;;;;;;7.88;4.65;;;;;;;;;;5098721;28;20044;-80
2021/10/07 07:26:03;;;;;;;5.72;4.38;;;;;;;;;;5100724;28;20068;-81
2021/10/07 07:28:28;;;;;;;9.77;4.97;;;;;;;;;;5100166;28;20028;-79
2021/10/07 07:30:53;;;;;;;5.35;4.43;;;;;;;;;;5101509;28;20093;-79
2021/10/07 07:33:22;;;;;;;17.65;5.38;;;;;;;;;;5099301;28;20040;-78
2021/10/07 07:35:47;;;;;;;7.55;4.38;;;;;;;;;;5096841;28;20378;-76
2021/10/07 07:38:13;;;;;;;8.10;4.32;;;;;;;;;;5095821;28;20063;-76
2021/10/07 07:40:38;;;;;;;4.60;3.40;;;;;;;;;;5096262;28;20036;-76
2021/10/07 07:43:04;;;;;;;5.38;3.50;;;;;;;;;;5095896;28;20031;-78
2021/10/07 07:45:29;;;;;;;5.80;4.28;;;;;;;;;;5096034;28;20465;-76
2021/10/07 07:47:56;;;;;;;8.68;3.78;;;;;;;;;;5096196;28;20435;-76
2021/10/07 07:50:23;;;;;;;5.95;3.67;;;;;;;;;;5094435;28;20042;-76
2021/10/07 07:52:51;;;;;;;6.47;4.40;;;;;;;;;;5092538;28;20033;-75
2021/10/07 07:55:16;;;;;;;8.25;4.68;;;;;;;;;;5074627;28;20041;-78
2021/10/07 07:57:42;;;;;;;8.38;5.10;;;;;;;;;;5075582;28;20029;-76
2021/10/07 08:00:08;;;;;;;9.88;5.90;;;;;;;;;;5075221;28;20486;-76
2021/10/07 08:02:37;;;;;;;8.30;4.50;;;;;;;;;;5075002;28;20043;-77
2021/10/07 08:05:04;;;;;;;7.32;4.93;;;;;;;;;;5073888;28;20044;-76
2021/10/07 08:07:29;;;;;;;8.95;5.97;;;;;;;;;;5075634;28;20056;-76
2021/10/07 08:09:55;;;;;;;7.63;5.63;;;;;;;;;;5075593;28;20071;-76
2021/10/07 08:12:20;;;;;;;8.75;5.80;;;;;;;;;;5075464;28;20032;-77
2021/10/07 08:14:48;;;;;;;11.07;6.75;;;;;;;;;;5076329;28;20040;-76
2021/10/07 08:17:14;;;;;;;11.13;5.47;;;;;;;;;;5075187;28;20036;-76
2021/10/07 08:19:41;;;;;;;9.32;7.10;;;;;;;;;;5075157;28;20119;-75
2021/10/07 08:22:06;;;;;;;11.43;5.70;;;;;;;;;;5074766;28;20116;-76
2021/10/07 08:24:32;;;;;;;11.15;5.65;;;;;;;;;;5091990;28;20124;-78
2021/10/07 08:27:02;;;;;;;11.88;5.35;;;;;;;;;;5094428;28;20035;-78
2021/10/07 08:29:28;;;;;;;7.32;4.95;;;;;;;;;;5095915;28;20082;-78
2021/10/07 08:31:53;;;;;;;6.35;5.20;;;;;;;;;;5100509;28;20040;-79
2021/10/07 08:34:19;;;;;;;7.78;4.50;;;;;;;;;;5095838;28;20104;-75
2021/10/07 08:36:45;;;;;;;6.88;4.20;;;;;;;;;;5093871;28;20036;-74
2021/10/07 08:39:13;;;;;;;6.13;3.90;;;;;;;;;;5094822;28;20162;-76
2021/10/07 08:41:39;;;;;;;10.65;5.18;;;;;;;;;;5095250;28;20071;-75
2021/10/07 08:44:05;;;;;;;5.75;3.50;;;;;;;;;;5093664;28;20036;-75
2021/10/07 08:46:30;;;;;;;5.43;3.45;;;;;;;;;;5094546;28;20024;-75
2021/10/07 08:48:56;;;;;;;5.82;3.00;;;;;;;;;;5094543;28;20035;-75
2021/10/07 08:51:22;;;;;;;6.68;3.33;;;;;;;;;;5094776;28;20054;-76
2021/10/07 08:53:48;;;;;;;4.70;3.15;;;;;;;;;;5094696;28;20031;-76
2021/10/07 08:56:13;;;;;;;5.60;3.03;;;;;;;;;;5094902;28;20075;-75
2021/10/07 08:58:39;;;;;;;4.63;3.10;;;;;;;;;;5093665;28;20036;-76
2021/10/07 09:01:06;;;;;;;3.92;2.80;;;;;;;;;;5094571;28;20473;-75
2021/10/07 09:03:38;;;;;;;4.85;2.47;;;;;;;;;;5094453;28;20044;-75
2021/10/07 09:06:13;;;;;;;2.78;2.28;;;;;;;;;;5094219;28;20035;-75
2021/10/07 09:08:44;;;;;;;2.75;2.15;;;;;;;;;;5094506;28;20036;-75
2021/10/07 09:11:10;;;;;;;5.78;4.80;;;;;;;;;;5094435;28;20089;-76
2021/10/07 09:13:35;;;;;;;7.40;4.55;;;;;;;;;;5094261;28;20028;-75
2021/10/07 09:16:02;;;;;;;6.90;3.92;;;;;;;;;;5094514;28;20028;-75
2021/10/07 09:18:29;;;;;;;8.18;3.80;;;;;;;;;;5093814;28;20036;-75
2021/10/07 09:20:56;;;;;;;5.40;3.80;;;;;;;;;;5093930;28;20043;-75
2021/10/07 09:23:29;;;;;;;5.75;3.47;;;;;;;;;;5094156;28;20035;-76
2021/10/07 09:26:00;;;;;;;7.65;4.00;;;;;;;;;;5094340;28;20491;-76
2021/10/07 09:28:28;;;;;;;4.90;3.70;;;;;;;;;;5094083;28;20036;-75
2021/10/07 09:31:00;;;;;;;3.85;3.20;;;;;;;;;;5092836;28;20080;-75
2021/10/07 09:33:40;;;;;;;7.43;3.10;;;;;;;;;;5093572;28;20036;-75
2021/10/07 09:36:14;;;;;;;4.90;2.97;;;;;;;;;;5094110;28;20131;-75
2021/10/07 09:38:41;;;;;;;4.53;3.08;;;;;;;;;;5093380;28;20040;-75
2021/10/07 09:41:12;;;;;;;4.03;3.00;;;;;;;;;;5094075;28;20071;-77
2021/10/07 09:43:42;;;;;;;3.97;2.28;;;;;;;;;;5093954;28;20039;-76
2021/10/07 09:46:08;;;;;;;4.85;2.97;;;;;;;;;;5093887;28;20044;-75
2021/10/07 09:48:40;;;;;;;4.93;2.28;;;;;;;;;;5093646;28;20035;-75
2021/10/07 09:51:14;;;;;;;3.97;2.35;;;;;;;;;;5093864;28;20046;-75
2021/10/07 09:53:44;;;;;;;2.53;1.73;;;;;;;;;;5093212;28;20036;-75
2021/10/07 09:56:23;;;;;;;4.55;2.30;;;;;;;;;;5093429;28;20127;-75
2021/10/07 09:58:48;;;;;;;2.85;1.75;;;;;;;;;;5093553;28;20081;-75
2021/10/07 10:01:14;;;;;;;4.28;2.00;;;;;;;;;;5093667;28;20040;-76
2021/10/07 10:03:39;;;;;;;3.85;1.85;;;;;;;;;;5093278;28;20039;-76
2021/10/07 10:06:05;;;;;;;6.10;2.42;;;;;;;;;;5093681;28;20119;-75
2021/10/07 10:08:30;;;;;;;2.35;1.63;;;;;;;;;;5093578;28;20032;-75
2021/10/07 10:10:56;;;;;;;4.53;2.10;;;;;;;;;;5093763;28;20039;-75
2021/10/07 10:13:21;;;;;;;3.63;2.20;;;;;;;;;;5093891;28;20032;-75
2021/10/07 10:15:47;;;;;;;3.53;1.95;;;;;;;;;;5093726;28;20040;-76
2021/10/07 10:18:14;;;;;;;2.17;1.90;;;;;;;;;;5092556;28;20119;-74
2021/10/07 10:20:52;;;;;;;4.03;2.03;;;;;;;;;;5093650;28;20458;-75
2021/10/07 10:23:25;;;;;;;2.95;1.85;;;;;;;;;;5093522;28;20043;-75
2021/10/07 10:25:55;;;;;;;5.10;2.78;;;;;;;;;;5092236;28;20036;-75
2021/10/07 10:28:30;;;;;;;3.65;2.30;;;;;;;;;;5075291;28;20476;-75
2021/10/07 10:31:04;;;;;;;3.42;2.13;;;;;;;;;;5093556;28;20055;-75
2021/10/07 10:33:33;;;;;;;3.73;2.23;;;;;;;;;;5093095;28;20032;-75
2021/10/07 10:36:00;;;;;;;3.90;2.17;;;;;;;;;;5093537;28;20465;-75
2021/10/07 10:38:28;;;;;;;2.75;1.80;;;;;;;;;;5093215;28;20381;-75
2021/10/07 10:41:07;;;;;;;4.45;2.03;;;;;;;;;;5092420;28;20040;-75
2021/10/07 10:43:34;;;;;;;3.10;1.83;;;;;;;;;;5093532;28;20047;-75
2021/10/07 10:46:05;;;;;;;3.67;2.03;;;;;;;;;;5092250;28;20074;-75
2021/10/07 10:48:44;;;;;;;3.20;1.80;;;;;;;;;;5093068;28;20230;-75
2021/10/07 10:51:16;;;;;;;4.00;2.00;;;;;;;;;;5093599;28;20036;-75
2021/10/07 10:54:05;;;;;;;3.00;1.90;;;;;;;;;;5093352;28;20405;-75
2021/10/07 10:56:38;;;;;;;3.40;1.88;;;;;;;;;;5093771;28;20039;-75
2021/10/07 10:59:24;;;;;;;1.40;1.30;;;;;;;;;;5093633;28;20032;-75
2021/10/07 11:02:14;;;;;;;4.72;1.55;;;;;;;;;;5091004;28;20032;-75
2021/10/07 11:04:47;;;;;;;4.53;1.80;;;;;;;;;;5072973;28;20063;-77
2021/10/07 11:07:36;;;;;;;4.05;1.88;;;;;;;;;;5073123;28;20473;-77
2021/10/07 11:10:29;;;;;;;2.17;1.52;;;;;;;;;;5073111;28;20040;-77
2021/10/07 11:12:56;;;;;;;2.22;1.33;;;;;;;;;;5072918;28;20040;-77
2021/10/07 11:15:24;;;;;;;2.42;1.58;;;;;;;;;;5072538;28;20029;-77
2021/10/07 11:17:51;;;;;;;4.75;1.70;;;;;;;;;;5072663;28;20452;-76
2021/10/07 11:20:23;;;;;;;1.83;1.50;;;;;;;;;;5072787;28;20466;-75
2021/10/07 11:23:11;;;;;;;2.83;1.88;;;;;;;;;;5079102;28;20030;-75
2021/10/07 11:25:40;;;;;;;2.03;1.27;;;;;;;;;;5112578;28;20039;-77
2021/10/07 11:28:06;;;;;;;2.53;1.40;;;;;;;;;;5114700;28;20171;-76
2021/10/07 11:30:35;;;;;;;2.17;1.40;;;;;;;;;;5117264;28;20080;-76
2021/10/07 11:33:01;;;;;;;3.28;1.73;;;;;;;;;;5103379;28;20081;-75
2021/10/07 11:35:27;;;;;;;2.45;1.30;;;;;;;;;;5095126;28;20039;-75
2021/10/07 11:37:53;;;;;;;1.77;1.38;;;;;;;;;;5096369;28;20072;-76
2021/10/07 11:40:31;;;;;;;3.67;1.60;;;;;;;;;;5095382;28;20488;-76
2021/10/07 11:43:04;;;;;;;3.60;1.45;;;;;;;;;;5094862;28;20039;-76
2021/10/07 11:45:36;;;;;;;5.70;1.50;;;;;;;;;;5096498;28;20115;-78
2021/10/07 11:48:07;;;;;;;2.38;1.30;;;;;;;;;;5104699;28;20039;-81
2021/10/07 11:50:34;;;;;;;2.63;1.25;;;;;;;;;;5099857;28;20040;-79
2021/10/07 11:53:00;;;;;;;3.13;1.40;;;;;;;;;;5100470;28;20470;-79
2021/10/07 11:55:25;;;;;;;2.22;1.75;;;;;;;;;;5097560;28;20038;-78
2021/10/07 11:57:54;;;;;;;2.72;1.40;;;;;;;;;;5099259;28;20067;-79
2021/10/07 12:00:32;;;;;;;2.80;1.33;;;;;;;;;;5099259;28;20116;-78
2021/10/07 12:03:10;;;;;;;3.45;1.50;;;;;;;;;;5099316;28;20036;-80
2021/10/07 12:05:35;;;;;;;2.80;1.65;;;;;;;;;;5100209;28;20059;-81
2021/10/07 12:08:05;;;;;;;2.63;1.48;;;;;;;;;;5099947;28;20097;-80
2021/10/07 12:10:33;;;;;;;4.15;1.85;;;;;;;;;;5097714;28;20035;-79
2021/10/07 12:13:10;;;;;;;4.20;1.73;;;;;;;;;;5097154;28;20039;-78
2021/10/07 12:15:57;;;;;;;1.65;1.20;;;;;;;;;;5095936;28;20496;-77
2021/10/07 12:18:24;;;;;;;3.15;1.50;;;;;;;;;;5095509;28;20631;-76
2021/10/07 12:20:59;;;;;;;3.97;1.48;;;;;;;;;;5095543;28;20093;-76
2021/10/07 12:23:25;;;;;;;10.52;1.70;;;;;;;;;;5095520;28;20043;-76
2021/10/07 12:25:58;;;;;;;2.97;1.50;;;;;;;;;;5095308;28;20028;-76
2021/10/07 12:28:24;;;;;;;1.83;1.58;;;;;;;;;;5095206;28;20042;-76
2021/10/07 12:30:53;;;;;;;1.73;1.40;;;;;;;;;;5094940;28;20036;-76
2021/10/07 12:33:19;;;;;;;2.45;1.50;;;;;;;;;;5094898;28;20036;-76
2021/10/07 12:35:54;;;;;;;2.45;1.15;;;;;;;;;;5095207;28;20028;-76
2021/10/07 12:38:20;;;;;;;1.85;1.15;;;;;;;;;;5094929;28;20076;-76
2021/10/07 12:40:54;;;;;;;1.80;1.30;;;;;;;;;;5094073;28;20063;-76
2021/10/07 12:43:19;;;;;;;6.80;1.00;;;;;;;;;;5095066;28;20039;-76
2021/10/07 12:46:03;;;;;;;2.53;1.15;;;;;;;;;;5095056;28;20040;-76
2021/10/07 12:48:44;;;;;;;4.82;0.95;;;;;;;;;;5094628;28;20440;-76
2021/10/07 12:51:11;;;;;;;2.85;1.50;;;;;;;;;;5095347;28;20435;-76
2021/10/07 12:53:40;;;;;;;1.73;1.20;;;;;;;;;;5094741;28;20466;-76
2021/10/07 12:56:14;;;;;;;1.58;1.02;;;;;;;;;;5095106;28;20038;-76
2021/10/07 12:58:54;;;;;;;2.80;1.17;;;;;;;;;;5094521;28;20028;-76
2021/10/07 13:01:22;;;;;;;2.78;1.40;;;;;;;;;;5094920;28;20032;-76
2021/10/07 13:04:07;;;;;;;2.90;1.00;;;;;;;;;;5093346;28;20036;-76
2021/10/07 13:06:32;;;;;;;1.48;1.20;;;;;;;;;;5094636;28;20088;-75
2021/10/07 13:08:59;;;;;;;1.65;1.10;;;;;;;;;;5093786;28;20393;-75
2021/10/07 13:11:24;;;;;;;3.28;1.55;;;;;;;;;;5094802;28;20172;-76
2021/10/07 13:13:52;;;;;;;2.92;1.50;;;;;;;;;;5093339;28;20082;-76
2021/10/07 13:16:18;;;;;;;2.05;1.40;;;;;;;;;;5093129;28;20035;-76
2021/10/07 13:18:44;;;;;;;1.80;1.35;;;;;;;;;;5094261;28;20547;-76
2021/10/07 13:21:09;;;;;;;1.67;1.30;;;;;;;;;;5094288;28;20469;-76
2021/10/07 13:23:35;;;;;;;4.00;1.30;;;;;;;;;;5094387;28;20032;-76
2021/10/07 13:26:00;;;;;;;6.30;1.38;;;;;;;;;;5094588;28;20036;-76
2021/10/07 13:28:26;;;;;;;5.50;1.58;;;;;;;;;;5094111;28;20035;-76
2021/10/07 13:30:52;;;;;;;3.47;1.70;;;;;;;;;;5092948;28;20545;-76
2021/10/07 13:33:19;;;;;;;1.73;1.30;;;;;;;;;;5093941;28;20470;-76
2021/10/07 13:35:44;;;;;;;2.83;1.52;;;;;;;;;;5092757;28;20032;-76
2021/10/07 13:38:10;;;;;;;4.45;1.70;;;;;;;;;;5092071;28;20109;-76
2021/10/07 13:40:35;;;;;;;3.25;1.40;;;;;;;;;;5093680;28;20080;-76
2021/10/07 13:43:01;;;;;;;3.85;1.42;;;;;;;;;;5094023;28;20119;-76
2021/10/07 13:45:27;;;;;;;4.78;1.20;;;;;;;;;;5093783;28;20093;-76
2021/10/07 13:47:54;;;;;;;3.00;1.30;;;;;;;;;;5092731;28;20437;-76
2021/10/07 13:50:21;;;;;;;3.30;1.30;;;;;;;;;;5093688;28;20477;-76
2021/10/07 13:52:47;;;;;;;2.40;1.10;;;;;;;;;;5092900;28;20469;-76
2021/10/07 13:55:13;;;;;;;3.60;1.35;;;;;;;;;;5093319;28;20501;-76
2021/10/07 13:57:38;;;;;;;1.48;1.00;;;;;;;;;;5093668;28;20063;-76
2021/10/07 14:00:06;;;;;;;3.95;1.25;;;;;;;;;;5092523;28;20071;-76
2021/10/07 14:02:31;;;;;;;1.95;1.00;;;;;;;;;;5093771;28;20020;-76
2021/10/07 14:04:56;;;;;;;3.33;1.17;;;;;;;;;;5093624;28;20043;-76
2021/10/07 14:07:22;;;;;;;1.55;0.85;;;;;;;;;;5093320;28;20433;-76
2021/10/07 14:09:48;;;;;;;2.10;1.17;;;;;;;;;;5093029;28;20128;-75
2021/10/07 14:12:13;;;;;;;1.63;1.10;;;;;;;;;;5093536;28;20036;-76
2021/10/07 14:14:39;;;;;;;2.05;1.20;;;;;;;;;;5093263;28;20447;-76
2021/10/07 14:17:05;;;;;;;7.13;1.58;;;;;;;;;;5093613;28;20063;-76
2021/10/07 14:19:30;;;;;;;3.17;1.40;;;;;;;;;;5093281;28;20060;-76
2021/10/07 14:21:56;;;;;;;3.67;1.17;;;;;;;;;;5093495;28;20470;-76
2021/10/07 14:24:22;;;;;;;1.42;1.17;;;;;;;;;;5096282;28;20028;-84
2021/10/07 14:26:48;;;;;;;2.63;1.30;;;;;;;;;;5097167;28;20104;-79
2021/10/07 14:29:13;;;;;;;2.17;1.35;;;;;;;;;;5095956;28;20028;-79
2021/10/07 14:31:39;;;;;;;2.40;1.30;;;;;;;;;;5095417;28;20032;-79
2021/10/07 14:34:05;;;;;;;1.65;1.30;;;;;;;;;;5094350;28;20040;-79
2021/10/07 14:36:30;;;;;;;3.10;1.40;;;;;;;;;;5095773;28;20088;-79
2021/10/07 14:38:56;;;;;;;6.55;1.55;;;;;;;;;;5095460;28;20052;-79
2021/10/07 14:41:21;;;;;;;4.18;1.00;;;;;;;;;;5095537;28;20039;-78
2021/10/07 14:43:47;;;;;;;2.05;1.00;;;;;;;;;;5095522;28;20435;-78
2021/10/07 14:46:12;;;;;;;2.08;1.10;;;;;;;;;;5094825;28;20138;-78
2021/10/07 14:48:37;;;;;;;1.33;1.02;;;;;;;;;;5094443;28;20024;-78